sensor_id;sensor_type;location;lat;lon;timestamp;pressure;altitude;pressure_sealevel;temperature;humidity
57900;BME280;60605;53.716;19.940;2023-06-01T00:03:11;100324.35;;;10.41;77.85
57900;BME280;60605;53.716;19.940;2023-06-01T00:08:13;100323.97;;;10.38;77.89
57900;BME280;60605;53.716;19.940;2023-06-01T00:13:16;100316.81;;;10.32;78.32
57900;BME280;60605;53.716;19.940;2023-06-01T00:18:17;100321.29;;;10.25;78.64
57900;BME280;60605;53.716;19.940;2023-06-01T00:23:19;100319.16;;;10.16;79.03
57900;BME280;60605;53.716;19.940;2023-06-01T00:28:21;100312.73;;;10.07;79.38
57900;BME280;60605;53.716;19.940;2023-06-01T00:33:23;100310.79;;;9.97;79.44
57900;BME280;60605;53.716;19.940;2023-06-01T00:38:25;100310.13;;;9.87;79.92
57900;BME280;60605;53.716;19.940;2023-06-01T00:43:27;100308.18;;;9.78;80.45
57900;BME280;60605;53.716;19.940;2023-06-01T00:48:29;100304.44;;;9.69;80.69
57900;BME280;60605;53.716;19.940;2023-06-01T00:53:31;100304.02;;;9.60;81.27
57900;BME280;60605;53.716;19.940;2023-06-01T00:58:33;100301.85;;;9.52;82.06
57900;BME280;60605;53.716;19.940;2023-06-01T01:03:35;100296.63;;;9.43;82.88
57900;BME280;60605;53.716;19.940;2023-06-01T01:08:52;100294.20;;;9.35;83.51
57900;BME280;60605;53.716;19.940;2023-06-01T01:14:22;100291.77;;;9.27;83.99
57900;BME280;60605;53.716;19.940;2023-06-01T01:30:15;100265.89;;;9.07;85.36
57900;BME280;60605;53.716;19.940;2023-06-01T01:35:22;100261.90;;;9.04;85.47
57900;BME280;60605;53.716;19.940;2023-06-01T01:40:25;100257.34;;;8.99;85.56
57900;BME280;60605;53.716;19.940;2023-06-01T01:45:27;100254.34;;;8.93;85.73
57900;BME280;60605;53.716;19.940;2023-06-01T01:50:34;100251.76;;;8.90;86.33
57900;BME280;60605;53.716;19.940;2023-06-01T01:55:38;100247.77;;;8.87;86.48
57900;BME280;60605;53.716;19.940;2023-06-01T02:00:41;100244.39;;;8.85;87.09
57900;BME280;60605;53.716;19.940;2023-06-01T02:05:44;100245.48;;;8.84;87.75
57900;BME280;60605;53.716;19.940;2023-06-01T02:10:46;100242.40;;;8.83;88.07
57900;BME280;60605;53.716;19.940;2023-06-01T02:15:48;100239.73;;;8.81;88.11
57900;BME280;60605;53.716;19.940;2023-06-01T02:20:50;100240.28;;;8.83;88.45
57900;BME280;60605;53.716;19.940;2023-06-01T02:25:52;100241.60;;;8.88;88.35
57900;BME280;60605;53.716;19.940;2023-06-01T02:30:54;100242.80;;;8.92;88.26
57900;BME280;60605;53.716;19.940;2023-06-01T02:35:56;100235.92;;;8.97;88.11
57900;BME280;60605;53.716;19.940;2023-06-01T02:40:58;100234.23;;;9.02;88.20
57900;BME280;60605;53.716;19.940;2023-06-01T02:46:01;100229.89;;;9.08;88.42
57900;BME280;60605;53.716;19.940;2023-06-01T02:51:03;100230.92;;;9.18;88.33
57900;BME280;60605;53.716;19.940;2023-06-01T02:56:05;100230.81;;;9.28;88.25
57900;BME280;60605;53.716;19.940;2023-06-01T03:01:08;100226.61;;;9.37;88.31
57900;BME280;60605;53.716;19.940;2023-06-01T03:06:14;100228.16;;;9.46;88.13
57900;BME280;60605;53.716;19.940;2023-06-01T03:11:19;100233.13;;;9.60;87.75
57900;BME280;60605;53.716;19.940;2023-06-01T03:16:21;100231.86;;;9.76;87.47
57900;BME280;60605;53.716;19.940;2023-06-01T03:21:23;100225.89;;;9.95;86.98
57900;BME280;60605;53.716;19.940;2023-06-01T03:26:26;100223.65;;;10.20;86.22
57900;BME280;60605;53.716;19.940;2023-06-01T03:31:28;100220.98;;;10.60;85.54
57900;BME280;60605;53.716;19.940;2023-06-01T03:36:32;100210.02;;;11.31;84.48
57900;BME280;60605;53.716;19.940;2023-06-01T03:41:35;100207.64;;;12.30;82.28
57900;BME280;60605;53.716;19.940;2023-06-01T03:46:38;100210.98;;;13.55;79.64
57900;BME280;60605;53.716;19.940;2023-06-01T03:51:40;100210.78;;;14.94;75.89
57900;BME280;60605;53.716;19.940;2023-06-01T03:56:42;100209.36;;;16.39;72.28
57900;BME280;60605;53.716;19.940;2023-06-01T04:01:44;100211.18;;;17.88;68.23
57900;BME280;60605;53.716;19.940;2023-06-01T04:06:47;100211.38;;;19.33;64.07
57900;BME280;60605;53.716;19.940;2023-06-01T04:11:51;100211.35;;;20.64;60.05
57900;BME280;60605;53.716;19.940;2023-06-01T04:16:53;100205.15;;;21.72;56.23
57900;BME280;60605;53.716;19.940;2023-06-01T04:21:56;100203.65;;;22.57;52.74
57900;BME280;60605;53.716;19.940;2023-06-01T04:26:59;100195.27;;;23.25;50.53
57900;BME280;60605;53.716;19.940;2023-06-01T04:32:02;100187.55;;;23.97;48.35
57900;BME280;60605;53.716;19.940;2023-06-01T04:37:05;100177.66;;;24.59;46.34
57900;BME280;60605;53.716;19.940;2023-06-01T04:42:07;100171.68;;;25.21;44.87
57900;BME280;60605;53.716;19.940;2023-06-01T04:47:10;100174.65;;;25.74;43.39
57900;BME280;60605;53.716;19.940;2023-06-01T04:52:12;100179.50;;;26.23;42.20
57900;BME280;60605;53.716;19.940;2023-06-01T04:57:14;100176.48;;;26.79;41.49
57900;BME280;60605;53.716;19.940;2023-06-01T05:02:16;100166.84;;;27.28;39.85
57900;BME280;60605;53.716;19.940;2023-06-01T05:07:18;100158.02;;;27.65;39.41
57900;BME280;60605;53.716;19.940;2023-06-01T05:12:20;100151.19;;;28.19;38.79
57900;BME280;60605;53.716;19.940;2023-06-01T05:17:23;100154.56;;;28.70;37.57
57900;BME280;60605;53.716;19.940;2023-06-01T05:22:25;100148.40;;;29.11;37.01
57900;BME280;60605;53.716;19.940;2023-06-01T05:27:27;100148.98;;;29.53;36.29
57900;BME280;60605;53.716;19.940;2023-06-01T05:32:29;100150.11;;;29.95;35.94
57900;BME280;60605;53.716;19.940;2023-06-01T05:37:32;100148.51;;;30.46;35.11
57900;BME280;60605;53.716;19.940;2023-06-01T05:42:34;100146.98;;;30.90;34.96
57900;BME280;60605;53.716;19.940;2023-06-01T05:47:37;100144.12;;;31.47;34.47
57900;BME280;60605;53.716;19.940;2023-06-01T05:52:39;100146.30;;;32.08;33.75
57900;BME280;60605;53.716;19.940;2023-06-01T05:57:44;100149.98;;;32.39;32.87
57900;BME280;60605;53.716;19.940;2023-06-01T06:02:47;100144.35;;;32.53;32.16
57900;BME280;60605;53.716;19.940;2023-06-01T06:07:50;100147.13;;;32.64;32.20
57900;BME280;60605;53.716;19.940;2023-06-01T06:12:52;100143.61;;;33.05;31.43
57900;BME280;60605;53.716;19.940;2023-06-01T06:17:54;100149.30;;;33.55;30.79
57900;BME280;60605;53.716;19.940;2023-06-01T06:22:56;100144.90;;;34.08;29.79
57900;BME280;60605;53.716;19.940;2023-06-01T06:27:58;100144.48;;;34.57;28.91
57900;BME280;60605;53.716;19.940;2023-06-01T06:33:00;100138.48;;;34.96;28.26
57900;BME280;60605;53.716;19.940;2023-06-01T06:38:02;100138.55;;;35.40;27.21
57900;BME280;60605;53.716;19.940;2023-06-01T06:43:04;100132.59;;;35.65;26.40
57900;BME280;60605;53.716;19.940;2023-06-01T06:48:06;100132.83;;;35.88;26.44
57900;BME280;60605;53.716;19.940;2023-06-01T06:53:08;100130.52;;;36.26;25.82
57900;BME280;60605;53.716;19.940;2023-06-01T06:58:10;100131.73;;;36.77;25.24
57900;BME280;60605;53.716;19.940;2023-06-01T07:03:13;100130.80;;;37.32;25.11
57900;BME280;60605;53.716;19.940;2023-06-01T07:08:16;100121.39;;;37.84;24.37
57900;BME280;60605;53.716;19.940;2023-06-01T07:13:17;100118.36;;;37.95;24.17
57900;BME280;60605;53.716;19.940;2023-06-01T07:18:19;100115.31;;;38.41;23.95
57900;BME280;60605;53.716;19.940;2023-06-01T07:23:21;100116.75;;;38.73;23.15
57900;BME280;60605;53.716;19.940;2023-06-01T07:28:23;100111.70;;;38.98;23.41
57900;BME280;60605;53.716;19.940;2023-06-01T07:33:28;100117.50;;;39.42;22.90
57900;BME280;60605;53.716;19.940;2023-06-01T07:38:30;100112.34;;;39.95;22.37
57900;BME280;60605;53.716;19.940;2023-06-01T07:43:36;100109.75;;;40.16;21.32
57900;BME280;60605;53.716;19.940;2023-06-01T07:48:40;100106.42;;;40.10;20.99
57900;BME280;60605;53.716;19.940;2023-06-01T07:53:42;100104.69;;;39.99;20.65
57900;BME280;60605;53.716;19.940;2023-06-01T07:58:45;100102.86;;;39.74;21.02
57900;BME280;60605;53.716;19.940;2023-06-01T08:03:47;100096.94;;;40.01;21.37
57900;BME280;60605;53.716;19.940;2023-06-01T08:08:49;100097.98;;;40.40;20.75
57900;BME280;60605;53.716;19.940;2023-06-01T08:13:53;100092.56;;;40.57;20.86
57900;BME280;60605;53.716;19.940;2023-06-01T08:18:54;100093.02;;;40.90;21.07
57900;BME280;60605;53.716;19.940;2023-06-01T08:23:58;100091.80;;;41.08;19.68
57900;BME280;60605;53.716;19.940;2023-06-01T08:29:00;100088.23;;;40.67;19.97
57900;BME280;60605;53.716;19.940;2023-06-01T08:34:02;100086.53;;;40.56;20.61
57900;BME280;60605;53.716;19.940;2023-06-01T08:39:23;100085.23;;;40.71;19.86
57900;BME280;60605;53.716;19.940;2023-06-01T08:44:27;100084.64;;;40.89;20.12
57900;BME280;60605;53.716;19.940;2023-06-01T08:49:31;100082.05;;;41.07;19.41
57900;BME280;60605;53.716;19.940;2023-06-01T08:54:33;100075.84;;;41.20;19.41
57900;BME280;60605;53.716;19.940;2023-06-01T08:59:36;100070.94;;;41.20;19.06
57900;BME280;60605;53.716;19.940;2023-06-01T09:04:41;100067.88;;;41.09;19.70
57900;BME280;60605;53.716;19.940;2023-06-01T09:09:46;100065.54;;;41.01;19.84
57900;BME280;60605;53.716;19.940;2023-06-01T09:14:48;100065.33;;;40.88;19.28
57900;BME280;60605;53.716;19.940;2023-06-01T09:19:53;100065.09;;;40.53;20.15
57900;BME280;60605;53.716;19.940;2023-06-01T09:24:59;100058.77;;;40.21;19.69
57900;BME280;60605;53.716;19.940;2023-06-01T09:30:01;100060.80;;;39.90;20.37
57900;BME280;60605;53.716;19.940;2023-06-01T09:35:05;100058.61;;;39.96;20.63
57900;BME280;60605;53.716;19.940;2023-06-01T09:40:19;100053.33;;;39.64;20.68
57900;BME280;60605;53.716;19.940;2023-06-01T09:45:22;100056.39;;;38.60;21.53
57900;BME280;60605;53.716;19.940;2023-06-01T09:50:36;100050.52;;;38.47;21.73
57900;BME280;60605;53.716;19.940;2023-06-01T09:55:56;100042.00;;;38.54;22.17
57900;BME280;60605;53.716;19.940;2023-06-01T10:01:00;100040.56;;;38.54;22.28
57900;BME280;60605;53.716;19.940;2023-06-01T10:06:04;100037.10;;;37.79;22.79
57900;BME280;60605;53.716;19.940;2023-06-01T10:11:07;100032.89;;;35.94;24.69
57900;BME280;60605;53.716;19.940;2023-06-01T10:16:10;100033.17;;;34.07;26.56
57900;BME280;60605;53.716;19.940;2023-06-01T10:21:14;100024.05;;;32.88;28.04
57900;BME280;60605;53.716;19.940;2023-06-01T10:26:17;100012.77;;;32.08;29.28
57900;BME280;60605;53.716;19.940;2023-06-01T10:31:40;100015.34;;;31.56;30.04
57900;BME280;60605;53.716;19.940;2023-06-01T10:41:56;100022.30;;;30.40;31.88
57900;BME280;60605;53.716;19.940;2023-06-01T10:46:59;100020.33;;;30.12;31.81
57900;BME280;60605;53.716;19.940;2023-06-01T10:57:25;100018.21;;;29.66;32.64
57900;BME280;60605;53.716;19.940;2023-06-01T11:02:28;100014.56;;;29.00;32.95
57900;BME280;60605;53.716;19.940;2023-06-01T11:07:37;100006.59;;;28.74;34.03
57900;BME280;60605;53.716;19.940;2023-06-01T11:13:11;100006.33;;;28.62;34.49
57900;BME280;60605;53.716;19.940;2023-06-01T11:18:53;100005.01;;;28.49;34.69
57900;BME280;60605;53.716;19.940;2023-06-01T11:24:03;99998.27;;;28.54;34.92
57900;BME280;60605;53.716;19.940;2023-06-01T11:29:18;99993.35;;;28.76;34.97
57900;BME280;60605;53.716;19.940;2023-06-01T11:34:36;99991.83;;;28.98;34.38
57900;BME280;60605;53.716;19.940;2023-06-01T11:39:43;99996.97;;;28.89;33.49
57900;BME280;60605;53.716;19.940;2023-06-01T11:44:58;99991.64;;;28.63;34.06
57900;BME280;60605;53.716;19.940;2023-06-01T11:50:00;99988.18;;;28.59;34.11
57900;BME280;60605;53.716;19.940;2023-06-01T11:55:03;99983.52;;;28.34;34.27
57900;BME280;60605;53.716;19.940;2023-06-01T12:00:10;99981.16;;;28.06;34.66
57900;BME280;60605;53.716;19.940;2023-06-01T12:05:14;99974.81;;;28.01;34.38
57900;BME280;60605;53.716;19.940;2023-06-01T12:10:18;99976.96;;;27.99;34.31
57900;BME280;60605;53.716;19.940;2023-06-01T12:15:21;99979.05;;;27.80;34.35
57900;BME280;60605;53.716;19.940;2023-06-01T12:20:29;99974.29;;;27.45;34.68
57900;BME280;60605;53.716;19.940;2023-06-01T12:25:32;99973.30;;;27.31;35.17
57900;BME280;60605;53.716;19.940;2023-06-01T12:30:34;99965.18;;;27.35;35.10
57900;BME280;60605;53.716;19.940;2023-06-01T12:35:48;99961.23;;;27.55;35.93
57900;BME280;60605;53.716;19.940;2023-06-01T12:41:11;99958.63;;;27.54;35.82
57900;BME280;60605;53.716;19.940;2023-06-01T12:46:22;99950.27;;;27.11;36.01
57900;BME280;60605;53.716;19.940;2023-06-01T12:51:24;99941.95;;;26.99;36.50
57900;BME280;60605;53.716;19.940;2023-06-01T12:56:34;99940.67;;;27.18;36.23
57900;BME280;60605;53.716;19.940;2023-06-01T13:01:37;99942.02;;;27.30;36.56
57900;BME280;60605;53.716;19.940;2023-06-01T13:06:40;99935.93;;;27.48;35.96
57900;BME280;60605;53.716;19.940;2023-06-01T13:11:42;99933.21;;;27.60;35.49
57900;BME280;60605;53.716;19.940;2023-06-01T13:16:44;99931.19;;;27.66;36.20
57900;BME280;60605;53.716;19.940;2023-06-01T13:21:46;99932.14;;;27.55;36.29
57900;BME280;60605;53.716;19.940;2023-06-01T13:26:49;99938.95;;;27.22;35.79
57900;BME280;60605;53.716;19.940;2023-06-01T13:31:51;99935.29;;;27.07;36.45
57900;BME280;60605;53.716;19.940;2023-06-01T13:36:53;99929.27;;;26.92;35.50
57900;BME280;60605;53.716;19.940;2023-06-01T13:41:56;99926.95;;;26.60;36.43
57900;BME280;60605;53.716;19.940;2023-06-01T13:46:58;99927.66;;;26.44;36.62
57900;BME280;60605;53.716;19.940;2023-06-01T13:52:01;99928.17;;;26.26;37.64
57900;BME280;60605;53.716;19.940;2023-06-01T13:57:03;99922.83;;;26.23;38.12
57900;BME280;60605;53.716;19.940;2023-06-01T14:02:07;99920.08;;;26.17;37.64
57900;BME280;60605;53.716;19.940;2023-06-01T14:07:10;99920.95;;;25.79;37.65
57900;BME280;60605;53.716;19.940;2023-06-01T14:12:13;99922.52;;;25.51;38.19
57900;BME280;60605;53.716;19.940;2023-06-01T14:17:15;99912.97;;;25.51;39.08
57900;BME280;60605;53.716;19.940;2023-06-01T14:22:17;99906.68;;;25.54;38.49
57900;BME280;60605;53.716;19.940;2023-06-01T14:27:22;99906.33;;;25.29;39.00
57900;BME280;60605;53.716;19.940;2023-06-01T14:32:24;99902.05;;;25.16;39.67
57900;BME280;60605;53.716;19.940;2023-06-01T14:37:27;99901.94;;;25.22;39.75
57900;BME280;60605;53.716;19.940;2023-06-01T14:42:49;99897.10;;;25.20;40.06
57900;BME280;60605;53.716;19.940;2023-06-01T14:47:52;99896.63;;;25.29;40.02
57900;BME280;60605;53.716;19.940;2023-06-01T14:52:54;99898.20;;;25.29;39.63
57900;BME280;60605;53.716;19.940;2023-06-01T14:58:01;99897.64;;;25.35;39.97
57900;BME280;60605;53.716;19.940;2023-06-01T15:03:05;99901.90;;;25.42;41.04
57900;BME280;60605;53.716;19.940;2023-06-01T15:08:09;99897.18;;;25.48;41.91
57900;BME280;60605;53.716;19.940;2023-06-01T15:13:13;99901.52;;;25.42;42.26
57900;BME280;60605;53.716;19.940;2023-06-01T15:18:15;99903.98;;;25.30;42.73
57900;BME280;60605;53.716;19.940;2023-06-01T15:23:18;99904.45;;;25.24;43.49
57900;BME280;60605;53.716;19.940;2023-06-01T15:28:21;99907.77;;;25.08;45.20
57900;BME280;60605;53.716;19.940;2023-06-01T15:33:27;99908.48;;;24.73;46.59
57900;BME280;60605;53.716;19.940;2023-06-01T15:38:30;99908.71;;;24.42;47.84
57900;BME280;60605;53.716;19.940;2023-06-01T15:43:35;99915.11;;;24.02;48.85
57900;BME280;60605;53.716;19.940;2023-06-01T15:48:38;99917.69;;;23.61;49.70
57900;BME280;60605;53.716;19.940;2023-06-01T15:53:42;99920.89;;;23.22;50.75
57900;BME280;60605;53.716;19.940;2023-06-01T15:58:45;99927.61;;;22.82;51.79
57900;BME280;60605;53.716;19.940;2023-06-01T16:03:53;99934.64;;;22.42;52.55
57900;BME280;60605;53.716;19.940;2023-06-01T16:08:55;99937.61;;;22.03;52.91
57900;BME280;60605;53.716;19.940;2023-06-01T16:13:57;99936.25;;;21.73;53.24
57900;BME280;60605;53.716;19.940;2023-06-01T16:19:01;99946.80;;;21.45;53.80
57900;BME280;60605;53.716;19.940;2023-06-01T16:24:05;99954.45;;;21.22;54.72
57900;BME280;60605;53.716;19.940;2023-06-01T16:29:08;99958.36;;;20.97;55.71
57900;BME280;60605;53.716;19.940;2023-06-01T16:34:12;99959.31;;;20.65;56.12
57900;BME280;60605;53.716;19.940;2023-06-01T16:39:15;99958.92;;;20.42;57.09
57900;BME280;60605;53.716;19.940;2023-06-01T16:44:17;99956.92;;;20.26;58.06
57900;BME280;60605;53.716;19.940;2023-06-01T16:49:19;99954.92;;;20.13;58.62
57900;BME280;60605;53.716;19.940;2023-06-01T16:54:23;99959.54;;;20.03;59.03
57900;BME280;60605;53.716;19.940;2023-06-01T16:59:25;99960.41;;;19.99;59.28
57900;BME280;60605;53.716;19.940;2023-06-01T17:04:27;99961.28;;;19.89;59.68
57900;BME280;60605;53.716;19.940;2023-06-01T17:09:31;99969.59;;;19.72;59.73
57900;BME280;60605;53.716;19.940;2023-06-01T17:14:34;99967.80;;;19.57;60.27
57900;BME280;60605;53.716;19.940;2023-06-01T17:19:36;99971.91;;;19.45;60.75
57900;BME280;60605;53.716;19.940;2023-06-01T17:24:38;99970.52;;;19.24;61.14
57900;BME280;60605;53.716;19.940;2023-06-01T17:29:40;99969.96;;;19.05;61.76
57900;BME280;60605;53.716;19.940;2023-06-01T17:34:43;99973.07;;;18.82;62.50
57900;BME280;60605;53.716;19.940;2023-06-01T17:39:46;99978.29;;;18.55;63.29
57900;BME280;60605;53.716;19.940;2023-06-01T17:44:49;99986.72;;;18.28;63.99
57900;BME280;60605;53.716;19.940;2023-06-01T17:49:51;99989.64;;;17.98;64.57
57900;BME280;60605;53.716;19.940;2023-06-01T17:54:56;99995.52;;;17.72;65.45
57900;BME280;60605;53.716;19.940;2023-06-01T17:59:59;100005.15;;;17.47;66.35
57900;BME280;60605;53.716;19.940;2023-06-01T18:05:02;100005.91;;;17.25;67.54
57900;BME280;60605;53.716;19.940;2023-06-01T18:10:07;100001.11;;;17.05;68.33
57900;BME280;60605;53.716;19.940;2023-06-01T18:15:10;99999.11;;;16.91;68.86
57900;BME280;60605;53.716;19.940;2023-06-01T18:20:12;100000.23;;;16.78;69.52
57900;BME280;60605;53.716;19.940;2023-06-01T18:25:15;99997.80;;;16.62;69.63
57900;BME280;60605;53.716;19.940;2023-06-01T18:30:22;100001.50;;;16.41;70.29
57900;BME280;60605;53.716;19.940;2023-06-01T18:35:28;100000.26;;;16.19;70.91
57900;BME280;60605;53.716;19.940;2023-06-01T18:40:30;100000.78;;;15.99;71.84
57900;BME280;60605;53.716;19.940;2023-06-01T18:45:33;99999.37;;;15.82;72.39
57900;BME280;60605;53.716;19.940;2023-06-01T18:50:38;100001.23;;;15.67;73.14
57900;BME280;60605;53.716;19.940;2023-06-01T18:55:40;100005.40;;;15.48;73.96
57900;BME280;60605;53.716;19.940;2023-06-01T19:00:44;100004.74;;;15.25;74.58
57900;BME280;60605;53.716;19.940;2023-06-01T19:05:54;100007.63;;;14.99;75.41
57900;BME280;60605;53.716;19.940;2023-06-01T19:10:59;100011.63;;;14.77;76.21
57900;BME280;60605;53.716;19.940;2023-06-01T19:16:21;100014.11;;;14.62;77.32
57900;BME280;60605;53.716;19.940;2023-06-01T19:21:30;100014.65;;;14.52;77.71
57900;BME280;60605;53.716;19.940;2023-06-01T19:26:37;100021.91;;;14.44;77.88
57900;BME280;60605;53.716;19.940;2023-06-01T19:31:50;100024.46;;;14.38;78.38
57900;BME280;60605;53.716;19.940;2023-06-01T19:36:55;100025.64;;;14.34;78.97
57900;BME280;60605;53.716;19.940;2023-06-01T19:47:58;100024.03;;;14.27;80.21
57900;BME280;60605;53.716;19.940;2023-06-01T19:52:54;100026.45;;;14.21;80.32
57900;BME280;60605;53.716;19.940;2023-06-01T19:57:58;100026.00;;;14.21;80.77
57900;BME280;60605;53.716;19.940;2023-06-01T20:03:05;100025.19;;;14.23;80.96
57900;BME280;60605;53.716;19.940;2023-06-01T20:08:13;100019.80;;;14.25;81.51
57900;BME280;60605;53.716;19.940;2023-06-01T20:13:17;100012.89;;;14.24;82.04
57900;BME280;60605;53.716;19.940;2023-06-01T20:18:22;100009.45;;;14.22;82.08
57900;BME280;60605;53.716;19.940;2023-06-01T20:23:31;100009.06;;;14.19;82.05
57900;BME280;60605;53.716;19.940;2023-06-01T20:28:52;100012.19;;;14.18;82.67
57900;BME280;60605;53.716;19.940;2023-06-01T20:33:58;100013.58;;;14.16;83.02
57900;BME280;60605;53.716;19.940;2023-06-01T20:39:00;100018.45;;;14.18;83.06
57900;BME280;60605;53.716;19.940;2023-06-01T20:44:03;100014.36;;;14.18;82.96
57900;BME280;60605;53.716;19.940;2023-06-01T20:49:05;100016.70;;;14.20;83.08
57900;BME280;60605;53.716;19.940;2023-06-01T20:54:11;100018.98;;;14.21;83.20
57900;BME280;60605;53.716;19.940;2023-06-01T20:59:33;100022.50;;;14.20;83.23
57900;BME280;60605;53.716;19.940;2023-06-01T21:04:36;100023.76;;;14.18;83.37
57900;BME280;60605;53.716;19.940;2023-06-01T21:09:44;100024.62;;;14.15;83.57
57900;BME280;60605;53.716;19.940;2023-06-01T21:14:46;100020.60;;;14.13;83.77
57900;BME280;60605;53.716;19.940;2023-06-01T21:19:48;100016.59;;;14.11;83.82
57900;BME280;60605;53.716;19.940;2023-06-01T21:24:50;100017.11;;;14.07;83.82
57900;BME280;60605;53.716;19.940;2023-06-01T21:29:52;100015.71;;;14.04;83.95
57900;BME280;60605;53.716;19.940;2023-06-01T21:34:55;100013.92;;;14.03;84.89
57900;BME280;60605;53.716;19.940;2023-06-01T21:39:57;100012.04;;;14.02;85.17
57900;BME280;60605;53.716;19.940;2023-06-01T21:44:59;100012.73;;;14.01;85.58
57900;BME280;60605;53.716;19.940;2023-06-01T21:50:01;100009.38;;;13.99;85.76
57900;BME280;60605;53.716;19.940;2023-06-01T21:55:05;100011.68;;;13.97;86.12
57900;BME280;60605;53.716;19.940;2023-06-01T22:00:08;100011.83;;;13.95;86.49
57900;BME280;60605;53.716;19.940;2023-06-01T22:05:15;100014.40;;;13.93;86.62
57900;BME280;60605;53.716;19.940;2023-06-01T22:10:17;100018.45;;;13.92;87.12
57900;BME280;60605;53.716;19.940;2023-06-01T22:15:19;100020.00;;;13.91;87.45
57900;BME280;60605;53.716;19.940;2023-06-01T22:20:21;100019.78;;;13.90;87.45
57900;BME280;60605;53.716;19.940;2023-06-01T22:25:23;100022.20;;;13.86;87.88
57900;BME280;60605;53.716;19.940;2023-06-01T22:30:25;100022.27;;;13.81;87.82
57900;BME280;60605;53.716;19.940;2023-06-01T22:35:27;100021.80;;;13.79;87.88
57900;BME280;60605;53.716;19.940;2023-06-01T22:40:29;100024.95;;;13.75;88.25
57900;BME280;60605;53.716;19.940;2023-06-01T22:45:33;100026.77;;;13.72;88.51
57900;BME280;60605;53.716;19.940;2023-06-01T22:50:35;100027.27;;;13.69;88.53
57900;BME280;60605;53.716;19.940;2023-06-01T22:55:37;100030.42;;;13.68;88.70
57900;BME280;60605;53.716;19.940;2023-06-01T23:00:39;100033.63;;;13.67;88.86
57900;BME280;60605;53.716;19.940;2023-06-01T23:05:42;100032.23;;;13.65;88.87
57900;BME280;60605;53.716;19.940;2023-06-01T23:10:46;100033.06;;;13.65;89.03
57900;BME280;60605;53.716;19.940;2023-06-01T23:15:54;100033.89;;;13.65;88.95
57900;BME280;60605;53.716;19.940;2023-06-01T23:20:57;100036.38;;;13.63;88.70
57900;BME280;60605;53.716;19.940;2023-06-01T23:26:01;100037.67;;;13.63;88.86
57900;BME280;60605;53.716;19.940;2023-06-01T23:31:03;100038.23;;;13.63;88.76
57900;BME280;60605;53.716;19.940;2023-06-01T23:36:06;100035.15;;;13.62;88.78
57900;BME280;60605;53.716;19.940;2023-06-01T23:41:09;100033.38;;;13.60;88.66
57900;BME280;60605;53.716;19.940;2023-06-01T23:46:12;100033.23;;;13.57;88.31
57900;BME280;60605;53.716;19.940;2023-06-01T23:51:14;100036.94;;;13.53;87.98
57900;BME280;60605;53.716;19.940;2023-06-01T23:56:17;100040.98;;;13.49;87.74
